Impacts TAF Board INFO
FOR SITUATIONAL AWARENESS. NOT TO BE USED FOR FLIGHT PLANNING PURPOSES.
IDs:

KSFO - San Francisco Intl, CA, US

Issued at 2100 UTC 21 Feb 2018
Updated at 2306 UTC 21 Feb 2018
Potential Impact None Slight Moderate High
Time<<22/12Z 22/13Z 22/14Z 22/15Z 22/16Z 22/17Z 22/18Z 22/19Z 22/20Z 22/21Z 22/22Z 22/23Z 23/00Z>>
Type PRVL PRVL PRVL PRVL PRVL PRVL PRVL PRVL PRVL PRVL PRVL PRVL
VIS >6 >6 >6 >6 >6 >6 >6 >6 >6 >6 >6 >6
CIG 40 40 -- -- -- -- -- -- -- -- -- --
Cover BKN BKN FEW FEW FEW FEW FEW FEW FEW FEW FEW FEW
FltCat VFR VFR VFR VFR VFR VFR VFR VFR VFR VFR VFR VFR
WX -- -- -- -- -- -- -- -- -- -- -- --
WDir 300 300 290 290 290 290 290 290 290 280 280 280
WSpd 11 11 16 16 16 16 16 16 16 20 20 28
WGst -- -- 24 24 24 24 24 24 24 28 28 34

Raw TAF
KSFO 212100Z 2121/2224 03005KT P6SM FEW035
  FM212230 29006KT P6SM FEW035
  FM220100 28009KT P6SM FEW035
  FM220600 27006KT P6SM FEW025 SCT050
  FM221000 30011KT P6SM SCT020 BKN040
  FM221400 29016G24KT P6SM FEW025 FEW050
  FM222100 28020G28KT P6SM FEW030
  FM222300 28028G34KT P6SM FEW030


METAR Board
Radar Display
Forecast Discussion

FOR SITUATIONAL AWARENESS. NOT TO BE USED FOR FLIGHT PLANNING PURPOSES.